OPA Logo
 

ASOS: KRDM
At:2019.02.24 0256 UTC
Wind:110° @ 4KT
Viz: 9 mile(s)
Sky: overcast
Temp: 0.01 inches
DewP: 34.0 F (1.1 C)
RH: 30 F (-1 C):1
Baro: 30 F (-1 C):1
ob: KRDM 240256Z AUTO 11004KT 9SM FEW020 BKN046 OVC075 01/00 A2999 RMK AO2 SNE55 SLP172 P0001 60004 T00110000 58007
Apache-SSL Logo

Valid HTML 4.01!

Central Oregon OPA Chapter

Chapter Officers 2006:

President
Gary E. Miller
109 NW Wilmington Ave.
Bend OR 97701
541 382-8588
gem@rellim.com

Vice President:
Open

Secretary/Treasurer:
Don Wilfong
210 SE Cessna Dr
Bend OR 97702
541 389-1456
dwnw@bendbroadband.com


Web page by: gem@rellim.com